createdAt,value
2018-03-20T00:01:59.287Z,12.70
2018-03-20T00:04:25.385Z,18.60
2018-03-20T00:06:51.394Z,16.20
2018-03-20T00:09:17.349Z,16.20
2018-03-20T00:11:43.410Z,14.70
2018-03-20T00:14:09.374Z,16.53
2018-03-20T00:16:35.502Z,11.40
2018-03-20T00:19:01.464Z,16.20
2018-03-20T00:21:27.452Z,11.90
2018-03-20T00:23:54.193Z,11.57
2018-03-20T00:26:20.265Z,11.20
2018-03-20T00:28:46.304Z,10.67
2018-03-20T00:31:12.330Z,10.93
2018-03-20T00:33:38.289Z,9.53
2018-03-20T00:36:04.242Z,16.83
2018-03-20T00:38:31.046Z,16.23
2018-03-20T00:40:57.789Z,23.33
2018-03-20T00:43:24.621Z,17.53
2018-03-20T00:45:50.584Z,15.13
2018-03-20T00:48:17.324Z,17.57
2018-03-20T00:50:43.368Z,18.27
2018-03-20T00:53:10.100Z,12.87
2018-03-20T00:55:36.068Z,17.13
2018-03-20T00:58:02.803Z,16.53
2018-03-20T01:00:28.796Z,15.40
2018-03-20T01:02:54.831Z,16.43
2018-03-20T01:05:20.912Z,23.00
2018-03-20T01:07:46.984Z,19.00
2018-03-20T01:10:13.701Z,11.87
2018-03-20T01:12:39.676Z,14.63
2018-03-20T01:15:05.687Z,13.97
2018-03-20T01:17:31.695Z,14.60
2018-03-20T01:19:58.619Z,14.33
2018-03-20T01:22:24.712Z,13.57
2018-03-20T01:24:51.441Z,17.97
2018-03-20T01:27:17.459Z,17.83
2018-03-20T01:29:43.459Z,17.40
2018-03-20T01:32:10.181Z,13.70
2018-03-20T01:34:36.185Z,15.30
2018-03-20T01:37:02.147Z,20.53
2018-03-20T01:39:28.176Z,14.27
2018-03-20T01:41:54.175Z,16.53
2018-03-20T01:44:20.126Z,14.00
2018-03-20T01:46:46.162Z,16.70
2018-03-20T01:49:18.955Z,15.20
2018-03-20T01:51:45.009Z,13.37
2018-03-20T01:54:11.010Z,12.70
2018-03-20T01:56:37.691Z,17.77
2018-03-20T01:59:03.673Z,14.40
2018-03-20T02:01:29.707Z,18.33
2018-03-20T02:03:56.505Z,15.73
2018-03-20T02:06:22.470Z,17.93
2018-03-20T02:08:48.443Z,17.27
2018-03-20T02:11:21.329Z,13.23
2018-03-20T02:13:48.784Z,12.43
2018-03-20T02:16:14.732Z,14.23
2018-03-20T02:18:40.684Z,15.73
2018-03-20T02:21:06.652Z,13.27
2018-03-20T02:23:32.644Z,12.63
2018-03-20T02:25:58.708Z,16.17
2018-03-20T02:28:24.728Z,16.97
2018-03-20T02:30:51.465Z,16.07
2018-03-20T02:33:17.486Z,17.07
2018-03-20T02:35:43.453Z,14.67
2018-03-20T02:38:09.439Z,15.03
2018-03-20T02:40:35.423Z,12.37
2018-03-20T02:43:01.437Z,18.90
2018-03-20T02:45:27.461Z,19.83
2018-03-20T02:47:53.420Z,11.53
2018-03-20T02:50:19.464Z,17.03
2018-03-20T02:52:45.456Z,16.70
2018-03-20T02:55:11.489Z,15.30
2018-03-20T02:57:37.460Z,19.20
2018-03-20T03:00:03.461Z,13.27
2018-03-20T03:02:29.464Z,20.77
2018-03-20T03:04:56.304Z,18.97
2018-03-20T03:07:22.269Z,10.60
2018-03-20T03:09:48.984Z,13.63
2018-03-20T03:12:15.023Z,17.10
2018-03-20T03:14:41.004Z,17.43
2018-03-20T03:17:06.976Z,17.97
2018-03-20T03:19:32.978Z,20.70
2018-03-20T03:21:58.980Z,10.50
2018-03-20T03:24:25.018Z,18.57
2018-03-20T03:26:51.011Z,16.03
2018-03-20T03:29:16.976Z,16.33
2018-03-20T03:31:42.964Z,17.83
2018-03-20T03:34:08.936Z,14.00
2018-03-20T03:36:34.932Z,15.60
2018-03-20T03:39:00.997Z,14.43
2018-03-20T03:41:27.034Z,17.63
2018-03-20T03:43:53.020Z,19.17
2018-03-20T03:46:19.728Z,18.00
2018-03-20T03:48:45.713Z,14.67
2018-03-20T03:51:12.417Z,15.80
2018-03-20T03:53:38.412Z,17.70
2018-03-20T03:56:05.118Z,15.57
2018-03-20T03:58:31.068Z,18.70
2018-03-20T04:00:57.084Z,13.37
2018-03-20T04:03:23.057Z,17.00
2018-03-20T04:05:49.811Z,15.63
2018-03-20T04:08:16.565Z,19.20
2018-03-20T04:10:43.289Z,17.07
2018-03-20T04:13:09.275Z,13.23
2018-03-20T04:15:35.276Z,16.57
2018-03-20T04:18:01.989Z,17.00
2018-03-20T04:20:28.068Z,18.07
2018-03-20T04:22:54.082Z,13.70
2018-03-20T04:25:21.564Z,15.60
2018-03-20T04:27:47.552Z,18.90
2018-03-20T04:30:13.548Z,15.57
2018-03-20T04:32:40.250Z,20.03
2018-03-20T04:35:06.221Z,45.13
2018-03-20T04:37:32.221Z,31.60
2018-03-20T04:39:58.258Z,24.23
2018-03-20T04:42:24.282Z,27.10
2018-03-20T04:44:50.248Z,20.23
2018-03-20T04:47:16.229Z,28.27
2018-03-20T04:49:42.937Z,27.90
2018-03-20T04:52:08.920Z,64.60
2018-03-20T04:54:35.668Z,74.57
2018-03-20T04:57:01.639Z,49.27
2018-03-20T04:59:27.709Z,37.87
2018-03-20T05:01:53.662Z,92.83
2018-03-20T05:04:19.652Z,52.30
2018-03-20T05:06:45.635Z,30.17
2018-03-20T05:09:11.629Z,17.70
2018-03-20T05:11:37.588Z,15.00
2018-03-20T05:14:03.577Z,30.80
2018-03-20T05:16:30.347Z,17.43
2018-03-20T05:19:01.336Z,21.17
2018-03-20T05:21:29.359Z,18.87
2018-03-20T05:23:59.231Z,21.00
2018-03-20T05:26:25.244Z,18.80
2018-03-20T05:28:51.228Z,17.57
2018-03-20T05:31:17.244Z,15.97
2018-03-20T05:33:43.216Z,16.00
2018-03-20T05:36:09.217Z,18.17
2018-03-20T05:38:35.180Z,22.00
2018-03-20T05:41:01.184Z,18.87
2018-03-20T05:43:27.194Z,20.13
2018-03-20T05:45:53.188Z,22.73
2018-03-20T05:51:16.608Z,21.07
2018-03-20T05:53:42.571Z,21.10
2018-03-20T05:56:08.582Z,25.87
2018-03-20T05:58:34.548Z,17.37
2018-03-20T06:01:00.598Z,32.77
2018-03-20T06:03:26.727Z,29.33
2018-03-20T06:05:52.684Z,22.47
2018-03-20T06:08:18.676Z,22.80
2018-03-20T06:10:45.377Z,28.20
2018-03-20T06:13:11.404Z,22.57
2018-03-20T06:15:37.392Z,22.80
2018-03-20T06:18:03.347Z,32.70
2018-03-20T06:20:30.128Z,29.57
2018-03-20T06:22:56.174Z,57.70
2018-03-20T06:25:22.172Z,21.00
2018-03-20T06:27:48.912Z,33.10
2018-03-20T06:30:14.936Z,34.57
2018-03-20T06:32:40.892Z,31.47
2018-03-20T06:35:07.618Z,30.10
2018-03-20T06:37:33.593Z,20.97
2018-03-20T06:40:00.431Z,30.60
2018-03-20T06:42:26.472Z,20.53
2018-03-20T06:44:53.196Z,23.77
2018-03-20T06:47:19.192Z,24.10
2018-03-20T06:49:45.188Z,25.10
2018-03-20T06:52:11.156Z,22.50
2018-03-20T06:54:37.149Z,27.30
2018-03-20T06:57:03.109Z,27.80
2018-03-20T06:59:29.932Z,21.10
2018-03-20T07:01:55.996Z,21.53
2018-03-20T07:04:22.736Z,23.03
2018-03-20T07:06:48.713Z,20.70
2018-03-20T07:09:14.704Z,27.47
2018-03-20T07:11:40.692Z,32.57
2018-03-20T07:14:06.632Z,31.90
2018-03-20T07:16:32.618Z,23.57
2018-03-20T07:18:58.614Z,24.40
2018-03-20T07:21:24.664Z,22.90
2018-03-20T07:23:50.657Z,20.57
2018-03-20T07:26:16.624Z,23.50
2018-03-20T07:28:42.680Z,25.63
2018-03-20T07:31:09.386Z,18.57
2018-03-20T07:33:35.417Z,22.93
2018-03-20T07:36:01.381Z,16.83
2018-03-20T07:38:27.526Z,22.07
2018-03-20T07:40:53.488Z,23.60
2018-03-20T07:43:19.456Z,23.10
2018-03-20T07:45:46.192Z,15.90
2018-03-20T07:48:12.145Z,21.90
2018-03-20T07:50:38.960Z,12.43
2018-03-20T07:53:04.917Z,18.27
2018-03-20T07:55:30.889Z,13.43
2018-03-20T07:57:57.645Z,16.50
2018-03-20T08:00:23.632Z,12.97
2018-03-20T08:02:49.613Z,13.57
2018-03-20T08:05:15.620Z,16.20
2018-03-20T08:07:41.564Z,15.17
2018-03-20T08:10:08.293Z,16.50
2018-03-20T08:12:34.249Z,19.73
2018-03-20T08:15:01.064Z,17.43
2018-03-20T08:17:27.190Z,12.20
2018-03-20T08:19:53.172Z,17.87
2018-03-20T08:22:19.169Z,15.23
2018-03-20T08:24:45.153Z,12.60
2018-03-20T08:27:11.841Z,15.83
2018-03-20T08:29:37.879Z,14.17
2018-03-20T08:32:03.876Z,14.03
2018-03-20T08:34:30.584Z,12.40
2018-03-20T08:36:56.595Z,11.93
2018-03-20T08:39:22.588Z,19.03
2018-03-20T08:41:48.535Z,12.00
2018-03-20T08:44:15.265Z,16.40
2018-03-20T08:46:41.234Z,14.27
2018-03-20T08:49:07.976Z,15.43
2018-03-20T08:51:34.105Z,12.30
2018-03-20T08:54:00.216Z,12.57
2018-03-20T08:56:26.260Z,12.83
2018-03-20T08:58:52.250Z,13.00
2018-03-20T09:01:18.248Z,15.70
2018-03-20T09:03:44.273Z,13.03
2018-03-20T09:06:10.277Z,14.20
2018-03-20T09:08:36.298Z,15.03
2018-03-20T09:11:02.429Z,14.43
2018-03-20T09:13:29.344Z,11.30
2018-03-20T09:15:55.399Z,15.60
2018-03-20T09:18:22.136Z,14.27
2018-03-20T09:20:48.142Z,10.57
2018-03-20T09:23:14.096Z,12.40
2018-03-20T09:25:40.087Z,12.13
2018-03-20T09:28:06.776Z,10.80
2018-03-20T09:30:32.760Z,14.00
2018-03-20T09:32:58.828Z,9.93
2018-03-20T09:35:24.900Z,14.07
2018-03-20T09:37:50.887Z,15.03
2018-03-20T09:40:16.853Z,10.73
2018-03-20T09:42:42.843Z,10.63
2018-03-20T09:45:09.529Z,12.83
2018-03-20T09:47:35.529Z,14.40
2018-03-20T09:50:01.476Z,11.90
2018-03-20T09:52:28.260Z,11.80
2018-03-20T09:54:55.048Z,9.80
2018-03-20T09:57:20.996Z,11.23
2018-03-20T09:59:46.980Z,11.60
2018-03-20T10:02:12.993Z,12.77
2018-03-20T10:04:39.777Z,9.30
2018-03-20T10:07:05.769Z,13.97
2018-03-20T10:09:31.720Z,14.07
2018-03-20T10:11:58.500Z,8.87
2018-03-20T10:14:24.482Z,12.50
2018-03-20T10:16:50.433Z,12.20
2018-03-20T10:19:16.417Z,10.10
2018-03-20T10:21:42.404Z,10.30
2018-03-20T10:24:09.124Z,9.53
2018-03-20T10:26:35.081Z,10.20
2018-03-20T10:29:01.227Z,12.40
2018-03-20T10:31:27.250Z,10.17
2018-03-20T10:33:53.206Z,9.00
2018-03-20T10:36:19.945Z,10.10
2018-03-20T10:38:45.916Z,11.43
2018-03-20T10:41:11.892Z,8.40
2018-03-20T10:43:37.838Z,7.50
2018-03-20T10:46:03.836Z,9.80
2018-03-20T10:48:29.894Z,7.93
2018-03-20T10:50:55.936Z,7.30
2018-03-20T10:53:21.931Z,7.33
2018-03-20T10:55:48.680Z,9.20
2018-03-20T10:58:15.380Z,10.93
2018-03-20T11:00:47.309Z,10.23
2018-03-20T11:03:14.064Z,12.07
2018-03-20T11:05:40.759Z,11.60
2018-03-20T11:08:06.722Z,12.73
2018-03-20T11:10:32.716Z,15.43
2018-03-20T11:12:58.696Z,10.20
2018-03-20T11:15:24.701Z,10.67
2018-03-20T11:17:50.652Z,11.07
2018-03-20T11:20:16.652Z,12.83
2018-03-20T11:22:42.645Z,9.90
2018-03-20T11:25:09.342Z,9.33
2018-03-20T11:27:35.296Z,11.83
2018-03-20T11:30:01.349Z,11.40
2018-03-20T11:32:27.358Z,8.53
2018-03-20T11:34:53.392Z,9.00
2018-03-20T11:37:19.368Z,9.27
2018-03-20T11:39:45.350Z,8.47
2018-03-20T11:42:11.351Z,11.07
2018-03-20T11:44:37.344Z,10.40
2018-03-20T11:47:03.293Z,11.10
2018-03-20T11:49:29.351Z,10.87
2018-03-20T11:51:55.340Z,10.53
2018-03-20T11:54:21.332Z,10.67
2018-03-20T11:56:47.351Z,11.40
2018-03-20T11:59:13.310Z,9.60
2018-03-20T12:01:39.272Z,11.17
2018-03-20T12:04:05.264Z,10.83
2018-03-20T12:06:31.306Z,11.40
2018-03-20T12:09:09.828Z,10.03
2018-03-20T12:11:35.785Z,10.73
2018-03-20T12:14:01.816Z,10.60
2018-03-20T12:16:27.998Z,11.30
2018-03-20T12:18:53.991Z,12.60
2018-03-20T12:21:19.977Z,12.87
2018-03-20T12:23:45.968Z,16.20
2018-03-20T12:26:11.956Z,11.30
2018-03-20T12:28:37.930Z,12.13
2018-03-20T12:31:03.924Z,12.27
2018-03-20T12:33:30.001Z,9.43
2018-03-20T12:35:56.030Z,10.23
2018-03-20T12:38:22.032Z,15.03
2018-03-20T12:40:47.985Z,11.80
2018-03-20T12:43:14.001Z,9.83
2018-03-20T12:45:39.969Z,14.00
2018-03-20T12:48:05.944Z,12.13
2018-03-20T12:50:32.668Z,13.93
2018-03-20T12:52:58.658Z,12.70
2018-03-20T12:55:24.703Z,12.83
2018-03-20T12:57:50.680Z,13.63
2018-03-20T13:00:16.663Z,14.00
2018-03-20T13:02:42.612Z,11.40
2018-03-20T13:05:08.611Z,12.40
2018-03-20T13:07:35.296Z,11.80
2018-03-20T13:10:01.333Z,15.40
2018-03-20T13:12:27.380Z,13.13
2018-03-20T13:14:53.400Z,10.63
2018-03-20T13:17:19.364Z,15.03
2018-03-20T13:19:45.321Z,11.83
2018-03-20T13:22:11.304Z,13.33
2018-03-20T13:24:37.272Z,11.17
2018-03-20T13:27:03.249Z,13.20
2018-03-20T13:29:29.300Z,10.90
2018-03-20T13:31:55.309Z,11.70
2018-03-20T13:34:21.308Z,13.90
2018-03-20T13:36:47.264Z,10.33
2018-03-20T13:39:13.264Z,12.00
2018-03-20T13:41:39.228Z,13.80
2018-03-20T13:44:05.240Z,12.63
2018-03-20T13:46:31.416Z,11.77
2018-03-20T13:48:57.413Z,13.10
2018-03-20T13:51:23.429Z,13.90
2018-03-20T13:53:50.116Z,14.43
2018-03-20T13:56:16.084Z,12.30
2018-03-20T13:58:42.249Z,13.97
2018-03-20T14:01:08.184Z,12.67
2018-03-20T14:03:34.880Z,12.23
2018-03-20T14:06:00.901Z,15.63
2018-03-20T14:08:26.948Z,16.70
2018-03-20T14:10:53.740Z,14.03
2018-03-20T14:13:19.700Z,14.27
2018-03-20T14:15:46.433Z,18.67
2018-03-20T14:18:12.392Z,14.50
2018-03-20T14:20:39.186Z,14.67
2018-03-20T14:23:05.089Z,15.90
2018-03-20T14:25:31.781Z,16.57
2018-03-20T14:27:57.815Z,16.40
2018-03-20T14:30:23.804Z,20.67
2018-03-20T14:32:50.544Z,22.03
2018-03-20T14:35:16.501Z,19.43
2018-03-20T14:37:43.189Z,19.60
2018-03-20T14:40:09.164Z,20.30
2018-03-20T14:42:35.117Z,18.53
2018-03-20T14:45:01.856Z,18.53
2018-03-20T14:47:27.886Z,22.30
2018-03-20T14:49:54.676Z,22.50
2018-03-20T14:52:20.696Z,24.47
2018-03-20T14:54:47.380Z,20.17
2018-03-20T14:57:13.368Z,19.60
2018-03-20T14:59:39.400Z,27.33
2018-03-20T15:02:05.352Z,21.77
2018-03-20T15:04:32.058Z,22.17
2018-03-20T15:06:58.068Z,25.33
2018-03-20T15:09:24.032Z,26.33
2018-03-20T15:11:50.012Z,21.90
2018-03-20T15:14:15.967Z,24.03
2018-03-20T15:16:41.929Z,24.47
2018-03-20T15:19:07.925Z,23.43
2018-03-20T15:21:34.652Z,23.03
2018-03-20T15:24:00.653Z,25.67
2018-03-20T15:26:26.652Z,25.07
2018-03-20T15:28:53.356Z,23.47
2018-03-20T15:31:19.350Z,25.00
2018-03-20T15:33:46.040Z,25.57
2018-03-20T15:36:12.006Z,24.20
2018-03-20T15:38:37.989Z,25.00
2018-03-20T15:41:03.995Z,23.43
2018-03-20T15:43:30.689Z,23.77
2018-03-20T15:45:56.683Z,22.97
2018-03-20T15:48:23.381Z,27.13
2018-03-20T15:50:49.364Z,22.43
2018-03-20T15:53:15.325Z,26.70
2018-03-20T15:55:42.049Z,22.20
2018-03-20T15:58:08.009Z,24.27
2018-03-20T16:00:34.744Z,25.40
2018-03-20T16:03:00.806Z,27.50
2018-03-20T16:05:27.612Z,24.27
2018-03-20T16:07:53.615Z,24.60
2018-03-20T16:10:19.612Z,30.37
2018-03-20T16:12:45.560Z,26.87
2018-03-20T16:15:12.257Z,31.53
2018-03-20T16:17:38.301Z,28.17
2018-03-20T16:20:04.291Z,29.23
2018-03-20T16:22:31.049Z,31.20
2018-03-20T16:24:57.849Z,31.60
2018-03-20T16:27:23.828Z,29.20
2018-03-20T16:29:50.552Z,30.50
2018-03-20T16:32:16.496Z,31.80
2018-03-20T16:34:42.557Z,29.67
2018-03-20T16:37:09.192Z,30.40
2018-03-20T16:39:35.173Z,27.60
2018-03-20T16:42:01.118Z,30.97
2018-03-20T16:44:27.137Z,28.00
2018-03-20T16:46:53.203Z,31.40
2018-03-20T16:49:19.164Z,29.40
2018-03-20T16:51:45.138Z,27.23
2018-03-20T16:54:11.136Z,28.07
2018-03-20T16:56:37.087Z,30.83
2018-03-20T16:59:03.062Z,30.30
2018-03-20T17:01:29.057Z,35.00
2018-03-20T17:03:55.788Z,28.97
2018-03-20T17:06:21.768Z,31.53
2018-03-20T17:08:47.714Z,30.00
2018-03-20T17:11:13.661Z,26.70
2018-03-20T17:13:39.673Z,28.57
2018-03-20T17:16:06.356Z,28.40
2018-03-20T17:18:32.307Z,28.07
2018-03-20T17:20:58.352Z,29.93
2018-03-20T17:23:24.305Z,28.00
2018-03-20T17:25:50.296Z,29.17
2018-03-20T17:28:16.308Z,30.23
2018-03-20T17:30:42.316Z,24.00
2018-03-20T17:33:08.317Z,24.03
2018-03-20T17:35:36.136Z,26.87
2018-03-20T17:38:02.112Z,36.03
2018-03-20T17:40:28.087Z,25.57
2018-03-20T17:42:54.073Z,26.77
2018-03-20T17:45:20.020Z,30.40
2018-03-20T17:47:46.049Z,27.10
2018-03-20T17:50:11.998Z,25.27
2018-03-20T17:52:37.961Z,27.90
2018-03-20T17:55:04.012Z,30.20
2018-03-20T17:57:30.067Z,24.67
2018-03-20T17:59:56.840Z,27.67
2018-03-20T18:02:22.818Z,26.50
2018-03-20T18:04:48.801Z,23.47
2018-03-20T18:07:15.528Z,27.20
2018-03-20T18:09:41.480Z,26.97
2018-03-20T18:12:08.226Z,27.87
2018-03-20T18:14:34.172Z,30.87
2018-03-20T18:17:00.160Z,29.60
2018-03-20T18:19:26.197Z,27.90
2018-03-20T18:21:52.177Z,30.30
2018-03-20T18:24:18.867Z,24.67
2018-03-20T18:26:44.848Z,27.57
2018-03-20T18:29:10.802Z,26.33
2018-03-20T18:31:36.781Z,31.13
2018-03-20T18:34:02.756Z,31.70
2018-03-20T18:36:28.776Z,28.27
2018-03-20T18:38:54.796Z,29.27
2018-03-20T18:41:20.770Z,27.00
2018-03-20T18:43:46.748Z,25.67
2018-03-20T18:46:12.705Z,29.13
2018-03-20T18:48:38.698Z,26.73
2018-03-20T18:51:05.441Z,32.83
2018-03-20T18:53:31.477Z,30.43
2018-03-20T18:55:58.204Z,28.87
2018-03-20T18:58:24.185Z,29.80
2018-03-20T19:00:50.188Z,35.83
2018-03-20T19:03:16.200Z,33.97
2018-03-20T19:05:42.164Z,38.37
2018-03-20T19:08:08.144Z,29.43
2018-03-20T19:10:34.124Z,34.10
2018-03-20T19:13:00.170Z,29.83
2018-03-20T19:15:26.221Z,33.50
2018-03-20T19:17:52.903Z,31.30
2018-03-20T19:20:18.950Z,29.87
2018-03-20T19:22:45.600Z,34.77
2018-03-20T19:25:11.593Z,35.73
2018-03-20T19:27:37.592Z,51.13
2018-03-20T19:30:03.591Z,40.37
2018-03-20T19:32:29.596Z,36.97
2018-03-20T19:34:55.620Z,38.83
2018-03-20T19:37:21.604Z,31.43
2018-03-20T19:39:47.604Z,36.53
2018-03-20T19:42:13.552Z,33.97
2018-03-20T19:44:40.249Z,37.40
2018-03-20T19:47:06.233Z,36.67
2018-03-20T19:49:32.228Z,35.17
2018-03-20T19:51:58.357Z,38.47
2018-03-20T19:54:24.301Z,40.17
2018-03-20T19:56:50.296Z,36.03
2018-03-20T19:59:17.013Z,38.87
2018-03-20T20:01:42.963Z,35.47
2018-03-20T20:04:08.999Z,35.43
2018-03-20T20:06:34.948Z,31.30
2018-03-20T20:09:01.742Z,34.93
2018-03-20T20:11:27.795Z,35.03
2018-03-20T20:13:53.745Z,38.00
2018-03-20T20:16:20.465Z,35.37
2018-03-20T20:18:46.412Z,35.63
2018-03-20T20:21:12.405Z,35.43
2018-03-20T20:23:39.094Z,33.40
2018-03-20T20:26:05.081Z,27.40
2018-03-20T20:28:31.158Z,23.97
2018-03-20T20:30:57.236Z,29.00
2018-03-20T20:33:23.188Z,30.23
2018-03-20T20:35:49.140Z,27.17
2018-03-20T20:38:15.887Z,28.47
2018-03-20T20:40:41.844Z,28.33
2018-03-20T20:43:08.528Z,30.03
2018-03-20T20:45:34.513Z,29.67
2018-03-20T20:48:00.544Z,30.70
2018-03-20T20:50:26.630Z,28.37
2018-03-20T20:52:52.580Z,20.87
2018-03-20T20:55:18.573Z,22.83
2018-03-20T20:57:45.260Z,23.03
2018-03-20T21:00:11.204Z,23.13
2018-03-20T21:02:37.217Z,20.63
2018-03-20T21:05:03.168Z,17.03
2018-03-20T21:07:29.236Z,20.20
2018-03-20T21:09:55.257Z,14.80
2018-03-20T21:12:22.017Z,18.43
2018-03-20T21:14:48.024Z,16.03
2018-03-20T21:17:14.012Z,13.90
2018-03-20T21:19:39.949Z,15.77
2018-03-20T21:22:05.924Z,12.47
2018-03-20T21:24:31.988Z,14.37
2018-03-20T21:26:58.060Z,15.63
2018-03-20T21:29:24.799Z,17.70
2018-03-20T21:31:50.802Z,11.47
2018-03-20T21:34:16.792Z,12.97
2018-03-20T21:36:42.747Z,11.83
2018-03-20T21:39:08.756Z,13.43
2018-03-20T21:41:34.708Z,9.33
2018-03-20T21:44:01.493Z,7.43
2018-03-20T21:46:27.538Z,11.90
2018-03-20T21:48:53.493Z,8.03
2018-03-20T21:51:19.473Z,8.33
2018-03-20T21:53:46.169Z,6.90
2018-03-20T21:56:12.154Z,7.27
2018-03-20T21:58:38.877Z,9.83
2018-03-20T22:01:04.860Z,5.50
2018-03-20T22:03:30.920Z,6.87
2018-03-20T22:05:56.940Z,9.17
2018-03-20T22:08:22.944Z,9.23
2018-03-20T22:10:48.932Z,3.70
2018-03-20T22:13:14.901Z,9.53
2018-03-20T22:15:40.884Z,10.90
2018-03-20T22:18:06.836Z,7.37
2018-03-20T22:20:32.821Z,10.77
2018-03-20T22:22:58.813Z,6.67
2018-03-20T22:25:24.789Z,8.50
2018-03-20T22:27:50.769Z,5.37
2018-03-20T22:30:16.770Z,5.20
2018-03-20T22:32:43.515Z,10.30
2018-03-20T22:35:09.500Z,4.53
2018-03-20T22:37:35.472Z,6.17
2018-03-20T22:40:01.457Z,7.20
2018-03-20T22:42:27.497Z,3.60
2018-03-20T22:44:53.452Z,5.40
2018-03-20T22:47:19.405Z,3.83
2018-03-20T22:49:45.472Z,4.30
2018-03-20T22:52:11.424Z,6.73
2018-03-20T22:54:38.132Z,3.57
2018-03-20T22:57:04.153Z,9.70
2018-03-20T22:59:30.150Z,5.63
2018-03-20T23:01:56.916Z,3.30
2018-03-20T23:04:22.896Z,5.80
2018-03-20T23:06:48.880Z,4.47
2018-03-20T23:09:15.576Z,13.43
2018-03-20T23:11:41.582Z,3.70
2018-03-20T23:14:07.585Z,3.37
2018-03-20T23:16:34.289Z,3.87
2018-03-20T23:19:00.315Z,3.20
2018-03-20T23:21:26.415Z,7.20
2018-03-20T23:23:53.215Z,3.90
2018-03-20T23:26:19.200Z,4.90
2018-03-20T23:28:45.153Z,6.03
2018-03-20T23:31:11.902Z,4.90
2018-03-20T23:33:38.645Z,7.33
2018-03-20T23:36:04.588Z,2.90
2018-03-20T23:38:30.647Z,3.40
2018-03-20T23:40:56.677Z,6.53
2018-03-20T23:43:23.371Z,3.67
2018-03-20T23:45:49.357Z,4.10
2018-03-20T23:48:16.100Z,3.67
2018-03-20T23:50:42.056Z,3.63
2018-03-20T23:53:08.757Z,2.87
2018-03-20T23:55:34.733Z,3.70
2018-03-20T23:58:01.480Z,5.30
